sensor_id;sensor_type;location;lat;lon;timestamp;temperature;humidity
73586;DHT22;61865;50.232;18.614;2022-09-20T00:01:59;9.40;99.90
73586;DHT22;61865;50.232;18.614;2022-09-20T00:04:21;9.40;99.90
73586;DHT22;61865;50.232;18.614;2022-09-20T00:06:43;9.40;99.90
73586;DHT22;61865;50.232;18.614;2022-09-20T00:09:06;9.40;99.90
73586;DHT22;61865;50.232;18.614;2022-09-20T00:11:29;9.50;99.90
73586;DHT22;61865;50.232;18.614;2022-09-20T00:13:53;9.40;99.90
73586;DHT22;61865;50.232;18.614;2022-09-20T00:16:18;9.40;99.90
73586;DHT22;61865;50.232;18.614;2022-09-20T00:18:47;9.40;99.90
73586;DHT22;61865;50.232;18.614;2022-09-20T00:21:14;9.30;99.90
73586;DHT22;61865;50.232;18.614;2022-09-20T00:23:36;9.40;99.90
73586;DHT22;61865;50.232;18.614;2022-09-20T00:26:03;9.40;99.90
73586;DHT22;61865;50.232;18.614;2022-09-20T00:28:25;9.40;99.90
73586;DHT22;61865;50.232;18.614;2022-09-20T00:30:47;9.40;99.90
73586;DHT22;61865;50.232;18.614;2022-09-20T00:33:09;9.40;99.90
73586;DHT22;61865;50.232;18.614;2022-09-20T00:35:31;9.40;99.90
73586;DHT22;61865;50.232;18.614;2022-09-20T00:37:52;9.40;99.90
73586;DHT22;61865;50.232;18.614;2022-09-20T00:40:16;9.40;99.90
73586;DHT22;61865;50.232;18.614;2022-09-20T00:42:41;9.40;99.90
73586;DHT22;61865;50.232;18.614;2022-09-20T00:45:04;9.40;99.90
73586;DHT22;61865;50.232;18.614;2022-09-20T00:47:35;9.30;99.90
73586;DHT22;61865;50.232;18.614;2022-09-20T00:50:02;9.40;99.90
73586;DHT22;61865;50.232;18.614;2022-09-20T00:52:25;9.40;99.90
73586;DHT22;61865;50.232;18.614;2022-09-20T00:54:48;9.30;99.90
73586;DHT22;61865;50.232;18.614;2022-09-20T00:57:10;9.30;99.90
73586;DHT22;61865;50.232;18.614;2022-09-20T00:59:35;9.30;99.90
73586;DHT22;61865;50.232;18.614;2022-09-20T01:02:02;9.40;99.90
73586;DHT22;61865;50.232;18.614;2022-09-20T01:04:26;9.30;99.90
73586;DHT22;61865;50.232;18.614;2022-09-20T01:06:51;9.30;99.90
73586;DHT22;61865;50.232;18.614;2022-09-20T01:09:15;9.40;99.90
73586;DHT22;61865;50.232;18.614;2022-09-20T01:11:37;9.40;99.90
73586;DHT22;61865;50.232;18.614;2022-09-20T01:13:59;9.30;99.90
73586;DHT22;61865;50.232;18.614;2022-09-20T01:16:24;9.30;99.90
73586;DHT22;61865;50.232;18.614;2022-09-20T01:18:47;9.30;99.90
73586;DHT22;61865;50.232;18.614;2022-09-20T01:21:10;9.30;99.90
73586;DHT22;61865;50.232;18.614;2022-09-20T01:23:42;9.30;99.90
73586;DHT22;61865;50.232;18.614;2022-09-20T01:29:12;9.30;99.90
73586;DHT22;61865;50.232;18.614;2022-09-20T01:31:43;9.30;99.90
73586;DHT22;61865;50.232;18.614;2022-09-20T01:34:08;9.30;99.90
73586;DHT22;61865;50.232;18.614;2022-09-20T01:36:42;9.20;99.90
73586;DHT22;61865;50.232;18.614;2022-09-20T01:39:09;9.20;99.90
73586;DHT22;61865;50.232;18.614;2022-09-20T01:41:34;9.20;99.90
73586;DHT22;61865;50.232;18.614;2022-09-20T01:44:03;9.20;99.90
73586;DHT22;61865;50.232;18.614;2022-09-20T01:46:30;9.20;99.90
73586;DHT22;61865;50.232;18.614;2022-09-20T01:48:57;9.20;99.90
73586;DHT22;61865;50.232;18.614;2022-09-20T01:54:48;9.20;99.90
73586;DHT22;61865;50.232;18.614;2022-09-20T01:57:45;9.20;99.90
73586;DHT22;61865;50.232;18.614;2022-09-20T02:00:12;9.20;99.90
73586;DHT22;61865;50.232;18.614;2022-09-20T02:09:18;9.20;99.90
73586;DHT22;61865;50.232;18.614;2022-09-20T02:11:58;9.20;99.90
73586;DHT22;61865;50.232;18.614;2022-09-20T02:14:35;9.10;99.90
73586;DHT22;61865;50.232;18.614;2022-09-20T02:17:09;9.10;99.90
73586;DHT22;61865;50.232;18.614;2022-09-20T02:19:46;9.10;99.90
73586;DHT22;61865;50.232;18.614;2022-09-20T02:22:21;9.20;99.90
73586;DHT22;61865;50.232;18.614;2022-09-20T02:24:48;9.20;99.90
73586;DHT22;61865;50.232;18.614;2022-09-20T02:27:20;9.20;99.90
73586;DHT22;61865;50.232;18.614;2022-09-20T02:29:48;9.20;99.90
73586;DHT22;61865;50.232;18.614;2022-09-20T02:32:32;9.20;99.90
73586;DHT22;61865;50.232;18.614;2022-09-20T02:35:24;9.20;99.90
73586;DHT22;61865;50.232;18.614;2022-09-20T02:37:59;9.10;99.90
73586;DHT22;61865;50.232;18.614;2022-09-20T02:40:37;9.20;99.90
73586;DHT22;61865;50.232;18.614;2022-09-20T02:43:03;9.20;99.90
73586;DHT22;61865;50.232;18.614;2022-09-20T02:45:34;9.10;99.90
73586;DHT22;61865;50.232;18.614;2022-09-20T02:48:00;9.20;99.90
73586;DHT22;61865;50.232;18.614;2022-09-20T02:50:34;9.20;99.90
73586;DHT22;61865;50.232;18.614;2022-09-20T02:53:10;9.20;99.90
73586;DHT22;61865;50.232;18.614;2022-09-20T02:55:41;9.20;99.90
73586;DHT22;61865;50.232;18.614;2022-09-20T02:58:26;9.20;99.90
73586;DHT22;61865;50.232;18.614;2022-09-20T03:00:53;9.30;99.90
73586;DHT22;61865;50.232;18.614;2022-09-20T03:03:22;9.20;99.90
73586;DHT22;61865;50.232;18.614;2022-09-20T03:05:59;9.30;99.90
73586;DHT22;61865;50.232;18.614;2022-09-20T03:08:32;9.30;99.90
73586;DHT22;61865;50.232;18.614;2022-09-20T03:11:03;9.40;99.90
73586;DHT22;61865;50.232;18.614;2022-09-20T03:13:42;9.40;99.90
73586;DHT22;61865;50.232;18.614;2022-09-20T03:16:11;9.40;99.90
73586;DHT22;61865;50.232;18.614;2022-09-20T03:18:45;9.30;99.90
73586;DHT22;61865;50.232;18.614;2022-09-20T03:21:27;9.30;99.90
73586;DHT22;61865;50.232;18.614;2022-09-20T03:24:02;9.30;99.90
73586;DHT22;61865;50.232;18.614;2022-09-20T03:26:34;9.30;99.90
73586;DHT22;61865;50.232;18.614;2022-09-20T03:29:03;9.20;99.90
73586;DHT22;61865;50.232;18.614;2022-09-20T03:31:35;9.20;99.90
73586;DHT22;61865;50.232;18.614;2022-09-20T03:34:08;9.30;99.90
73586;DHT22;61865;50.232;18.614;2022-09-20T03:36:59;9.20;99.90
73586;DHT22;61865;50.232;18.614;2022-09-20T03:42:17;9.20;99.90
73586;DHT22;61865;50.232;18.614;2022-09-20T03:44:58;9.10;99.90
73586;DHT22;61865;50.232;18.614;2022-09-20T03:47:43;9.20;99.90
73586;DHT22;61865;50.232;18.614;2022-09-20T03:50:19;9.10;99.90
73586;DHT22;61865;50.232;18.614;2022-09-20T03:52:56;9.20;99.90
73586;DHT22;61865;50.232;18.614;2022-09-20T03:55:43;9.20;99.90
73586;DHT22;61865;50.232;18.614;2022-09-20T03:58:24;9.20;99.90
73586;DHT22;61865;50.232;18.614;2022-09-20T04:00:59;9.20;99.90
73586;DHT22;61865;50.232;18.614;2022-09-20T04:03:29;9.20;99.90
73586;DHT22;61865;50.232;18.614;2022-09-20T04:06:03;9.20;99.90
73586;DHT22;61865;50.232;18.614;2022-09-20T04:08:47;9.20;99.90
73586;DHT22;61865;50.232;18.614;2022-09-20T04:11:19;9.30;99.90
73586;DHT22;61865;50.232;18.614;2022-09-20T04:13:49;9.30;99.90
73586;DHT22;61865;50.232;18.614;2022-09-20T04:16:21;9.30;99.90
73586;DHT22;61865;50.232;18.614;2022-09-20T04:18:49;9.20;99.90
73586;DHT22;61865;50.232;18.614;2022-09-20T04:21:16;9.20;99.90
73586;DHT22;61865;50.232;18.614;2022-09-20T04:23:51;9.20;99.90
73586;DHT22;61865;50.232;18.614;2022-09-20T04:26:17;9.20;99.90
73586;DHT22;61865;50.232;18.614;2022-09-20T04:28:45;9.20;99.90
73586;DHT22;61865;50.232;18.614;2022-09-20T04:31:16;9.20;99.90
73586;DHT22;61865;50.232;18.614;2022-09-20T04:33:43;9.20;99.90
73586;DHT22;61865;50.232;18.614;2022-09-20T04:36:14;9.20;99.90
73586;DHT22;61865;50.232;18.614;2022-09-20T04:38:53;9.20;99.90
73586;DHT22;61865;50.232;18.614;2022-09-20T04:41:36;9.30;99.90
73586;DHT22;61865;50.232;18.614;2022-09-20T04:44:17;9.30;99.90
73586;DHT22;61865;50.232;18.614;2022-09-20T04:47:14;9.30;99.90
73586;DHT22;61865;50.232;18.614;2022-09-20T04:50:14;9.40;99.90
73586;DHT22;61865;50.232;18.614;2022-09-20T04:53:17;9.40;99.90
73586;DHT22;61865;50.232;18.614;2022-09-20T04:55:48;9.40;99.90
73586;DHT22;61865;50.232;18.614;2022-09-20T04:58:36;9.30;99.90
73586;DHT22;61865;50.232;18.614;2022-09-20T05:07:03;9.30;99.90
73586;DHT22;61865;50.232;18.614;2022-09-20T05:09:43;9.40;99.90
73586;DHT22;61865;50.232;18.614;2022-09-20T05:12:47;9.50;99.90
73586;DHT22;61865;50.232;18.614;2022-09-20T05:15:31;9.50;99.90
73586;DHT22;61865;50.232;18.614;2022-09-20T05:18:14;9.60;99.90
73586;DHT22;61865;50.232;18.614;2022-09-20T05:20:51;9.60;99.90
73586;DHT22;61865;50.232;18.614;2022-09-20T05:23:43;9.50;99.90
73586;DHT22;61865;50.232;18.614;2022-09-20T05:26:11;9.50;99.90
73586;DHT22;61865;50.232;18.614;2022-09-20T05:28:44;9.50;99.90
73586;DHT22;61865;50.232;18.614;2022-09-20T05:31:12;9.60;99.90
73586;DHT22;61865;50.232;18.614;2022-09-20T05:33:41;9.70;99.90
73586;DHT22;61865;50.232;18.614;2022-09-20T05:36:12;9.80;99.90
73586;DHT22;61865;50.232;18.614;2022-09-20T05:38:44;9.80;99.90
73586;DHT22;61865;50.232;18.614;2022-09-20T05:41:12;9.90;99.90
73586;DHT22;61865;50.232;18.614;2022-09-20T05:43:49;9.90;99.90
73586;DHT22;61865;50.232;18.614;2022-09-20T05:46:16;9.90;99.90
73586;DHT22;61865;50.232;18.614;2022-09-20T05:48:52;9.80;99.90
73586;DHT22;61865;50.232;18.614;2022-09-20T05:51:33;9.90;99.90
73586;DHT22;61865;50.232;18.614;2022-09-20T05:54:19;10.00;99.90
73586;DHT22;61865;50.232;18.614;2022-09-20T05:56:49;10.10;99.90
73586;DHT22;61865;50.232;18.614;2022-09-20T05:59:28;10.10;99.90
73586;DHT22;61865;50.232;18.614;2022-09-20T06:02:01;10.20;99.90
73586;DHT22;61865;50.232;18.614;2022-09-20T06:04:36;10.20;99.90
73586;DHT22;61865;50.232;18.614;2022-09-20T06:07:05;10.30;99.90
73586;DHT22;61865;50.232;18.614;2022-09-20T06:09:43;10.20;99.90
73586;DHT22;61865;50.232;18.614;2022-09-20T06:12:25;10.00;99.90
73586;DHT22;61865;50.232;18.614;2022-09-20T06:14:59;9.90;99.90
73586;DHT22;61865;50.232;18.614;2022-09-20T06:17:27;9.80;99.90
73586;DHT22;61865;50.232;18.614;2022-09-20T06:19:56;9.70;99.90
73586;DHT22;61865;50.232;18.614;2022-09-20T06:22:23;9.70;99.90
73586;DHT22;61865;50.232;18.614;2022-09-20T06:24:52;9.70;99.90
73586;DHT22;61865;50.232;18.614;2022-09-20T06:27:19;9.80;99.90
73586;DHT22;61865;50.232;18.614;2022-09-20T06:29:48;9.90;99.90
73586;DHT22;61865;50.232;18.614;2022-09-20T06:32:17;9.90;99.90
73586;DHT22;61865;50.232;18.614;2022-09-20T06:34:39;10.00;99.90
73586;DHT22;61865;50.232;18.614;2022-09-20T06:37:10;10.00;99.90
73586;DHT22;61865;50.232;18.614;2022-09-20T06:40:04;10.10;99.90
73586;DHT22;61865;50.232;18.614;2022-09-20T06:42:46;10.10;99.90
73586;DHT22;61865;50.232;18.614;2022-09-20T06:45:08;10.10;99.90
73586;DHT22;61865;50.232;18.614;2022-09-20T06:47:31;10.00;99.90
73586;DHT22;61865;50.232;18.614;2022-09-20T06:49:53;10.10;99.90
73586;DHT22;61865;50.232;18.614;2022-09-20T06:52:20;10.00;99.90
73586;DHT22;61865;50.232;18.614;2022-09-20T06:54:42;10.10;99.90
73586;DHT22;61865;50.232;18.614;2022-09-20T06:57:05;10.10;99.90
73586;DHT22;61865;50.232;18.614;2022-09-20T06:59:27;10.00;99.90
73586;DHT22;61865;50.232;18.614;2022-09-20T07:01:49;10.10;99.90
73586;DHT22;61865;50.232;18.614;2022-09-20T07:04:12;10.20;99.90
73586;DHT22;61865;50.232;18.614;2022-09-20T07:06:34;10.20;99.90
73586;DHT22;61865;50.232;18.614;2022-09-20T07:08:56;10.40;99.90
73586;DHT22;61865;50.232;18.614;2022-09-20T07:11:18;10.40;99.90
73586;DHT22;61865;50.232;18.614;2022-09-20T07:13:44;10.40;99.90
73586;DHT22;61865;50.232;18.614;2022-09-20T07:16:07;10.40;99.90
73586;DHT22;61865;50.232;18.614;2022-09-20T07:18:29;10.40;99.90
73586;DHT22;61865;50.232;18.614;2022-09-20T07:20:54;10.40;99.90
73586;DHT22;61865;50.232;18.614;2022-09-20T07:23:18;10.60;99.90
73586;DHT22;61865;50.232;18.614;2022-09-20T07:25:40;10.60;99.90
73586;DHT22;61865;50.232;18.614;2022-09-20T07:28:02;10.60;99.90
73586;DHT22;61865;50.232;18.614;2022-09-20T07:30:27;10.60;99.90
73586;DHT22;61865;50.232;18.614;2022-09-20T07:32:49;10.60;99.90
73586;DHT22;61865;50.232;18.614;2022-09-20T07:35:14;10.50;99.90
73586;DHT22;61865;50.232;18.614;2022-09-20T07:37:37;10.60;99.90
73586;DHT22;61865;50.232;18.614;2022-09-20T07:40:01;10.80;99.90
73586;DHT22;61865;50.232;18.614;2022-09-20T07:42:22;11.10;99.90
73586;DHT22;61865;50.232;18.614;2022-09-20T07:44:44;11.20;99.90
73586;DHT22;61865;50.232;18.614;2022-09-20T07:47:08;11.40;99.90
73586;DHT22;61865;50.232;18.614;2022-09-20T07:49:30;11.50;99.90
73586;DHT22;61865;50.232;18.614;2022-09-20T07:51:53;11.60;99.90
73586;DHT22;61865;50.232;18.614;2022-09-20T07:54:16;11.60;99.90
73586;DHT22;61865;50.232;18.614;2022-09-20T07:56:38;11.60;99.90
73586;DHT22;61865;50.232;18.614;2022-09-20T07:59:00;11.80;99.90
73586;DHT22;61865;50.232;18.614;2022-09-20T08:01:22;11.90;99.90
73586;DHT22;61865;50.232;18.614;2022-09-20T08:03:44;12.00;99.90
73586;DHT22;61865;50.232;18.614;2022-09-20T08:06:08;12.00;99.90
73586;DHT22;61865;50.232;18.614;2022-09-20T08:08:31;11.70;99.90
73586;DHT22;61865;50.232;18.614;2022-09-20T08:11:00;11.70;99.90
73586;DHT22;61865;50.232;18.614;2022-09-20T08:13:22;11.60;99.90
73586;DHT22;61865;50.232;18.614;2022-09-20T08:15:44;11.50;99.90
73586;DHT22;61865;50.232;18.614;2022-09-20T08:18:08;11.40;99.90
73586;DHT22;61865;50.232;18.614;2022-09-20T08:20:31;11.50;99.90
73586;DHT22;61865;50.232;18.614;2022-09-20T08:22:57;11.70;99.90
73586;DHT22;61865;50.232;18.614;2022-09-20T08:25:19;11.70;99.90
73586;DHT22;61865;50.232;18.614;2022-09-20T08:27:43;11.90;99.90
73586;DHT22;61865;50.232;18.614;2022-09-20T08:30:05;11.80;99.90
73586;DHT22;61865;50.232;18.614;2022-09-20T08:32:27;11.90;99.90
73586;DHT22;61865;50.232;18.614;2022-09-20T08:34:49;11.90;99.90
73586;DHT22;61865;50.232;18.614;2022-09-20T08:37:11;12.00;99.90
73586;DHT22;61865;50.232;18.614;2022-09-20T08:39:33;12.10;99.90
73586;DHT22;61865;50.232;18.614;2022-09-20T08:41:58;12.10;99.90
73586;DHT22;61865;50.232;18.614;2022-09-20T08:44:26;12.10;99.90
73586;DHT22;61865;50.232;18.614;2022-09-20T08:47:00;12.00;99.90
73586;DHT22;61865;50.232;18.614;2022-09-20T08:49:25;12.00;99.90
73586;DHT22;61865;50.232;18.614;2022-09-20T08:51:48;11.90;99.90
73586;DHT22;61865;50.232;18.614;2022-09-20T08:54:12;11.70;99.90
73586;DHT22;61865;50.232;18.614;2022-09-20T08:56:36;11.90;99.90
73586;DHT22;61865;50.232;18.614;2022-09-20T08:58:58;11.90;99.90
73586;DHT22;61865;50.232;18.614;2022-09-20T09:01:23;11.90;99.90
73586;DHT22;61865;50.232;18.614;2022-09-20T09:03:45;11.90;99.90
73586;DHT22;61865;50.232;18.614;2022-09-20T09:06:10;11.90;99.90
73586;DHT22;61865;50.232;18.614;2022-09-20T09:08:36;11.90;99.90
73586;DHT22;61865;50.232;18.614;2022-09-20T09:11:02;11.90;99.90
73586;DHT22;61865;50.232;18.614;2022-09-20T09:13:31;12.00;99.90
73586;DHT22;61865;50.232;18.614;2022-09-20T09:15:58;12.00;99.90
73586;DHT22;61865;50.232;18.614;2022-09-20T09:18:31;11.90;99.90
73586;DHT22;61865;50.232;18.614;2022-09-20T09:20:55;12.00;99.90
73586;DHT22;61865;50.232;18.614;2022-09-20T09:23:22;12.30;99.90
73586;DHT22;61865;50.232;18.614;2022-09-20T09:25:45;12.50;99.90
73586;DHT22;61865;50.232;18.614;2022-09-20T09:28:13;12.70;99.90
73586;DHT22;61865;50.232;18.614;2022-09-20T09:30:36;12.50;99.90
73586;DHT22;61865;50.232;18.614;2022-09-20T09:33:17;12.40;99.90
73586;DHT22;61865;50.232;18.614;2022-09-20T09:35:44;12.30;99.90
73586;DHT22;61865;50.232;18.614;2022-09-20T09:38:16;12.30;99.90
73586;DHT22;61865;50.232;18.614;2022-09-20T09:40:49;12.00;99.90
73586;DHT22;61865;50.232;18.614;2022-09-20T09:43:19;12.00;99.90
73586;DHT22;61865;50.232;18.614;2022-09-20T09:45:42;12.20;99.90
73586;DHT22;61865;50.232;18.614;2022-09-20T09:48:18;12.30;99.90
73586;DHT22;61865;50.232;18.614;2022-09-20T09:50:40;12.40;99.90
73586;DHT22;61865;50.232;18.614;2022-09-20T09:53:10;12.30;99.90
73586;DHT22;61865;50.232;18.614;2022-09-20T09:55:52;12.20;99.90
73586;DHT22;61865;50.232;18.614;2022-09-20T09:58:33;12.10;99.90
73586;DHT22;61865;50.232;18.614;2022-09-20T10:01:01;12.20;99.90
73586;DHT22;61865;50.232;18.614;2022-09-20T10:03:33;12.30;99.90
73586;DHT22;61865;50.232;18.614;2022-09-20T10:06:12;12.70;99.90
73586;DHT22;61865;50.232;18.614;2022-09-20T10:08:51;13.00;99.90
73586;DHT22;61865;50.232;18.614;2022-09-20T10:11:26;13.10;99.90
73586;DHT22;61865;50.232;18.614;2022-09-20T10:13:56;12.90;99.90
73586;DHT22;61865;50.232;18.614;2022-09-20T10:16:29;12.60;99.90
73586;DHT22;61865;50.232;18.614;2022-09-20T10:18:58;12.50;99.90
73586;DHT22;61865;50.232;18.614;2022-09-20T10:21:35;12.40;99.90
73586;DHT22;61865;50.232;18.614;2022-09-20T10:24:10;12.30;99.90
73586;DHT22;61865;50.232;18.614;2022-09-20T10:26:50;12.30;99.90
73586;DHT22;61865;50.232;18.614;2022-09-20T10:29:25;12.10;99.90
73586;DHT22;61865;50.232;18.614;2022-09-20T10:31:54;12.20;99.90
73586;DHT22;61865;50.232;18.614;2022-09-20T10:34:51;12.20;99.90
73586;DHT22;61865;50.232;18.614;2022-09-20T10:37:24;12.20;99.90
73586;DHT22;61865;50.232;18.614;2022-09-20T10:39:59;12.60;99.90
73586;DHT22;61865;50.232;18.614;2022-09-20T10:42:28;12.80;99.90
73586;DHT22;61865;50.232;18.614;2022-09-20T10:45:13;12.90;99.90
73586;DHT22;61865;50.232;18.614;2022-09-20T10:47:44;13.00;99.90
73586;DHT22;61865;50.232;18.614;2022-09-20T10:50:20;12.50;99.90
73586;DHT22;61865;50.232;18.614;2022-09-20T10:53:01;12.30;99.90
73586;DHT22;61865;50.232;18.614;2022-09-20T10:55:33;12.20;99.90
73586;DHT22;61865;50.232;18.614;2022-09-20T11:00:56;12.70;99.90
73586;DHT22;61865;50.232;18.614;2022-09-20T11:03:28;12.90;99.90
73586;DHT22;61865;50.232;18.614;2022-09-20T11:06:05;13.20;99.90
73586;DHT22;61865;50.232;18.614;2022-09-20T11:08:33;13.20;94.70
73586;DHT22;61865;50.232;18.614;2022-09-20T11:11:00;13.00;96.60
73586;DHT22;61865;50.232;18.614;2022-09-20T11:13:29;13.10;99.90
73586;DHT22;61865;50.232;18.614;2022-09-20T11:15:57;13.20;93.10
73586;DHT22;61865;50.232;18.614;2022-09-20T11:18:23;13.10;94.40
73586;DHT22;61865;50.232;18.614;2022-09-20T11:20:52;13.00;97.00
73586;DHT22;61865;50.232;18.614;2022-09-20T11:23:19;13.10;95.60
73586;DHT22;61865;50.232;18.614;2022-09-20T11:25:47;12.80;94.80
73586;DHT22;61865;50.232;18.614;2022-09-20T11:28:17;12.60;99.90
73586;DHT22;61865;50.232;18.614;2022-09-20T11:30:43;12.30;96.40
73586;DHT22;61865;50.232;18.614;2022-09-20T11:33:15;12.30;99.90
73586;DHT22;61865;50.232;18.614;2022-09-20T11:35:43;12.50;98.80
73586;DHT22;61865;50.232;18.614;2022-09-20T11:38:11;12.60;95.00
73586;DHT22;61865;50.232;18.614;2022-09-20T11:40:38;12.60;90.80
73586;DHT22;61865;50.232;18.614;2022-09-20T11:43:04;12.70;93.90
73586;DHT22;61865;50.232;18.614;2022-09-20T11:45:29;12.80;93.70
73586;DHT22;61865;50.232;18.614;2022-09-20T11:47:56;12.80;91.10
73586;DHT22;61865;50.232;18.614;2022-09-20T11:51:01;12.80;90.90
73586;DHT22;61865;50.232;18.614;2022-09-20T11:56:16;12.80;90.70
73586;DHT22;61865;50.232;18.614;2022-09-20T11:58:44;12.80;85.90
73586;DHT22;61865;50.232;18.614;2022-09-20T12:01:11;12.80;84.20
73586;DHT22;61865;50.232;18.614;2022-09-20T12:03:36;13.00;84.00
73586;DHT22;61865;50.232;18.614;2022-09-20T12:06:00;13.10;89.10
73586;DHT22;61865;50.232;18.614;2022-09-20T12:08:26;13.30;84.40
73586;DHT22;61865;50.232;18.614;2022-09-20T12:10:56;13.40;86.00
73586;DHT22;61865;50.232;18.614;2022-09-20T12:13:23;13.50;80.10
73586;DHT22;61865;50.232;18.614;2022-09-20T12:15:45;13.30;84.10
73586;DHT22;61865;50.232;18.614;2022-09-20T12:18:32;13.20;79.10
73586;DHT22;61865;50.232;18.614;2022-09-20T12:21:05;13.00;80.80
73586;DHT22;61865;50.232;18.614;2022-09-20T12:26:38;13.10;81.50
73586;DHT22;61865;50.232;18.614;2022-09-20T12:29:03;13.20;83.20
73586;DHT22;61865;50.232;18.614;2022-09-20T12:31:37;13.30;83.00
73586;DHT22;61865;50.232;18.614;2022-09-20T12:34:03;13.60;83.70
73586;DHT22;61865;50.232;18.614;2022-09-20T12:36:35;13.50;78.30
73586;DHT22;61865;50.232;18.614;2022-09-20T12:38:59;13.60;83.20
73586;DHT22;61865;50.232;18.614;2022-09-20T12:41:23;13.70;76.60
73586;DHT22;61865;50.232;18.614;2022-09-20T12:44:00;13.70;77.10
73586;DHT22;61865;50.232;18.614;2022-09-20T12:46:29;13.60;74.40
73586;DHT22;61865;50.232;18.614;2022-09-20T12:49:22;13.50;79.90
73586;DHT22;61865;50.232;18.614;2022-09-20T12:52:32;13.40;74.00
73586;DHT22;61865;50.232;18.614;2022-09-20T12:58:22;13.60;79.80
73586;DHT22;61865;50.232;18.614;2022-09-20T13:00:46;13.60;80.40
73586;DHT22;61865;50.232;18.614;2022-09-20T13:03:22;13.50;78.50
73586;DHT22;61865;50.232;18.614;2022-09-20T13:05:46;13.60;78.00
73586;DHT22;61865;50.232;18.614;2022-09-20T13:08:15;13.50;75.50
73586;DHT22;61865;50.232;18.614;2022-09-20T13:10:42;13.50;80.00
73586;DHT22;61865;50.232;18.614;2022-09-20T13:13:27;13.50;80.30
73586;DHT22;61865;50.232;18.614;2022-09-20T13:15:51;13.50;79.10
73586;DHT22;61865;50.232;18.614;2022-09-20T13:18:14;13.50;84.30
73586;DHT22;61865;50.232;18.614;2022-09-20T13:20:37;13.50;81.60
73586;DHT22;61865;50.232;18.614;2022-09-20T13:23:02;13.60;83.20
73586;DHT22;61865;50.232;18.614;2022-09-20T13:25:25;13.60;82.00
73586;DHT22;61865;50.232;18.614;2022-09-20T13:27:52;13.50;74.00
73586;DHT22;61865;50.232;18.614;2022-09-20T13:30:19;13.60;79.30
73586;DHT22;61865;50.232;18.614;2022-09-20T13:32:41;13.70;84.00
73586;DHT22;61865;50.232;18.614;2022-09-20T13:35:09;13.80;79.60
73586;DHT22;61865;50.232;18.614;2022-09-20T13:37:34;13.80;85.20
73586;DHT22;61865;50.232;18.614;2022-09-20T13:39:58;13.80;81.50
73586;DHT22;61865;50.232;18.614;2022-09-20T13:42:20;13.80;81.40
73586;DHT22;61865;50.232;18.614;2022-09-20T13:44:42;13.70;81.00
73586;DHT22;61865;50.232;18.614;2022-09-20T13:47:20;13.70;81.20
73586;DHT22;61865;50.232;18.614;2022-09-20T13:49:42;13.70;78.30
73586;DHT22;61865;50.232;18.614;2022-09-20T13:52:19;13.80;81.30
73586;DHT22;61865;50.232;18.614;2022-09-20T13:54:42;14.00;75.20
73586;DHT22;61865;50.232;18.614;2022-09-20T13:57:12;13.90;74.10
73586;DHT22;61865;50.232;18.614;2022-09-20T13:59:41;13.80;76.50
73586;DHT22;61865;50.232;18.614;2022-09-20T14:02:04;13.80;73.30
73586;DHT22;61865;50.232;18.614;2022-09-20T14:04:38;13.70;76.20
73586;DHT22;61865;50.232;18.614;2022-09-20T14:07:00;13.70;77.40
73586;DHT22;61865;50.232;18.614;2022-09-20T14:09:31;13.70;74.70
73586;DHT22;61865;50.232;18.614;2022-09-20T14:11:54;13.70;77.10
73586;DHT22;61865;50.232;18.614;2022-09-20T14:14:18;13.60;73.20
73586;DHT22;61865;50.232;18.614;2022-09-20T14:16:42;13.50;76.60
73586;DHT22;61865;50.232;18.614;2022-09-20T14:19:07;13.50;75.30
73586;DHT22;61865;50.232;18.614;2022-09-20T14:21:31;13.60;74.30
73586;DHT22;61865;50.232;18.614;2022-09-20T14:23:55;13.60;73.70
73586;DHT22;61865;50.232;18.614;2022-09-20T14:26:22;13.70;74.30
73586;DHT22;61865;50.232;18.614;2022-09-20T14:28:45;13.80;73.30
73586;DHT22;61865;50.232;18.614;2022-09-20T14:31:13;13.90;73.80
73586;DHT22;61865;50.232;18.614;2022-09-20T14:33:40;14.00;73.50
73586;DHT22;61865;50.232;18.614;2022-09-20T14:36:03;14.10;72.70
73586;DHT22;61865;50.232;18.614;2022-09-20T14:38:26;14.20;79.30
73586;DHT22;61865;50.232;18.614;2022-09-20T14:40:48;14.50;76.60
73586;DHT22;61865;50.232;18.614;2022-09-20T14:43:24;14.60;75.50
73586;DHT22;61865;50.232;18.614;2022-09-20T14:45:51;14.50;75.40
73586;DHT22;61865;50.232;18.614;2022-09-20T14:48:31;14.50;76.00
73586;DHT22;61865;50.232;18.614;2022-09-20T14:51:09;14.50;75.40
73586;DHT22;61865;50.232;18.614;2022-09-20T14:53:31;14.40;74.30
73586;DHT22;61865;50.232;18.614;2022-09-20T14:55:58;14.30;74.60
73586;DHT22;61865;50.232;18.614;2022-09-20T14:58:21;14.10;81.00
73586;DHT22;61865;50.232;18.614;2022-09-20T15:00:50;14.10;77.10
73586;DHT22;61865;50.232;18.614;2022-09-20T15:03:13;14.00;81.60
73586;DHT22;61865;50.232;18.614;2022-09-20T15:05:38;13.90;80.70
73586;DHT22;61865;50.232;18.614;2022-09-20T15:08:00;13.80;83.30
73586;DHT22;61865;50.232;18.614;2022-09-20T15:10:22;13.60;83.80
73586;DHT22;61865;50.232;18.614;2022-09-20T15:12:45;13.40;85.50
73586;DHT22;61865;50.232;18.614;2022-09-20T15:15:10;13.30;89.20
73586;DHT22;61865;50.232;18.614;2022-09-20T15:17:34;13.20;88.10
73586;DHT22;61865;50.232;18.614;2022-09-20T15:19:56;13.10;89.20
73586;DHT22;61865;50.232;18.614;2022-09-20T15:22:20;12.90;92.00
73586;DHT22;61865;50.232;18.614;2022-09-20T15:24:42;12.70;98.00
73586;DHT22;61865;50.232;18.614;2022-09-20T15:27:04;12.40;99.90
73586;DHT22;61865;50.232;18.614;2022-09-20T15:29:26;12.30;99.90
73586;DHT22;61865;50.232;18.614;2022-09-20T15:31:48;12.20;99.90
73586;DHT22;61865;50.232;18.614;2022-09-20T15:34:10;12.20;99.90
73586;DHT22;61865;50.232;18.614;2022-09-20T15:36:34;12.20;99.90
73586;DHT22;61865;50.232;18.614;2022-09-20T15:38:57;12.10;99.90
73586;DHT22;61865;50.232;18.614;2022-09-20T15:41:19;12.10;99.90
73586;DHT22;61865;50.232;18.614;2022-09-20T15:43:41;12.10;99.90
73586;DHT22;61865;50.232;18.614;2022-09-20T15:46:16;12.10;99.90
73586;DHT22;61865;50.232;18.614;2022-09-20T15:48:39;12.10;99.90
73586;DHT22;61865;50.232;18.614;2022-09-20T15:51:03;12.20;99.90
73586;DHT22;61865;50.232;18.614;2022-09-20T15:53:26;12.20;99.90
73586;DHT22;61865;50.232;18.614;2022-09-20T15:55:49;12.20;99.90
73586;DHT22;61865;50.232;18.614;2022-09-20T15:58:11;12.10;99.90
73586;DHT22;61865;50.232;18.614;2022-09-20T16:00:34;12.00;99.90
73586;DHT22;61865;50.232;18.614;2022-09-20T16:02:56;12.00;99.90
73586;DHT22;61865;50.232;18.614;2022-09-20T16:05:18;12.00;99.90
73586;DHT22;61865;50.232;18.614;2022-09-20T16:07:40;11.90;99.90
73586;DHT22;61865;50.232;18.614;2022-09-20T16:10:02;11.90;99.90